Time;durP1;ratioP1;P1;durP2;ratioP2;P2;SDS_P1;SDS_P2;PMS_P1;PMS_P2;Temp;Humidity;BMP_temperature;BMP_pressure;BME280_temperature;BME280_humidity;BME280_pressure;Samples;Min_cycle;Max_cycle;Signal;HPM_P1;HPM_P2
2021/12/29 00:00:11;;;;;;;27.98;13.07;;;6.60;99.90;;;;;;5057937;28;20356;-68
2021/12/29 00:02:37;;;;;;;30.50;15.32;;;6.60;99.90;;;;;;5057657;28;20043;-70
2021/12/29 00:05:03;;;;;;;36.63;14.77;;;6.50;99.90;;;;;;5057433;28;20489;-69
2021/12/29 00:07:29;;;;;;;42.88;14.35;;;6.50;99.90;;;;;;5057305;28;20032;-69
2021/12/29 00:09:55;;;;;;;32.08;13.52;;;6.50;99.90;;;;;;5057773;28;20027;-70
2021/12/29 00:12:25;;;;;;;33.55;13.93;;;6.60;99.90;;;;;;5057210;28;20360;-70
2021/12/29 00:14:52;;;;;;;35.70;14.00;;;6.50;99.90;;;;;;5042664;28;20017;-70
2021/12/29 00:17:18;;;;;;;35.65;14.02;;;6.50;99.90;;;;;;5041481;28;20017;-70
2021/12/29 00:19:44;;;;;;;37.92;14.68;;;6.50;99.90;;;;;;5059759;28;20074;-70
2021/12/29 00:22:09;;;;;;;33.47;14.85;;;6.50;99.90;;;;;;5058411;28;20029;-70
2021/12/29 00:24:35;;;;;;;36.25;13.73;;;6.50;99.90;;;;;;5058853;28;20071;-70
2021/12/29 00:27:01;;;;;;;33.22;14.85;;;6.40;99.90;;;;;;5040437;28;20032;-71
2021/12/29 00:29:26;;;;;;;35.08;14.32;;;6.40;99.90;;;;;;5057103;28;20029;-70
2021/12/29 00:31:52;;;;;;;30.92;13.60;;;6.30;99.90;;;;;;5056504;28;20033;-70
2021/12/29 00:34:19;;;;;;;35.40;14.13;;;6.30;99.90;;;;;;5057747;28;20029;-69
2021/12/29 00:36:44;;;;;;;30.27;13.50;;;6.30;99.90;;;;;;5056858;28;20043;-69
2021/12/29 00:39:10;;;;;;;37.78;14.88;;;6.20;99.90;;;;;;5057308;28;20060;-69
2021/12/29 00:41:35;;;;;;;33.05;14.13;;;6.20;99.90;;;;;;5057320;28;20032;-70
2021/12/29 00:44:01;;;;;;;34.80;15.75;;;6.20;99.90;;;;;;5040370;28;20082;-69
2021/12/29 00:46:26;;;;;;;43.75;15.40;;;6.20;99.90;;;;;;5056555;28;20544;-69
2021/12/29 00:48:52;;;;;;;33.45;14.25;;;6.20;99.90;;;;;;5038971;28;20363;-70
2021/12/29 00:51:18;;;;;;;29.35;15.10;;;6.20;99.90;;;;;;5057587;28;20017;-69
2021/12/29 00:53:43;;;;;;;37.13;14.20;;;6.20;99.90;;;;;;5056978;28;20025;-69
2021/12/29 00:56:10;;;;;;;32.83;15.75;;;6.20;99.90;;;;;;5056892;28;20381;-70
2021/12/29 00:58:35;;;;;;;35.95;15.65;;;6.20;99.90;;;;;;5056774;28;20021;-70
2021/12/29 01:01:03;;;;;;;32.25;14.93;;;6.20;99.90;;;;;;5056041;28;20028;-70
2021/12/29 01:03:29;;;;;;;39.97;15.52;;;6.20;99.90;;;;;;5056948;28;20028;-70
2021/12/29 01:05:55;;;;;;;29.75;14.30;;;6.20;99.90;;;;;;5039141;28;20094;-71
2021/12/29 01:08:20;;;;;;;31.15;14.45;;;6.20;99.90;;;;;;5091305;22;20051;-73
2021/12/29 01:10:47;;;;;;;35.10;14.75;;;6.20;99.90;;;;;;5089855;28;20418;-73
2021/12/29 01:13:19;;;;;;;43.50;16.08;;;6.20;99.90;;;;;;5060597;28;20025;-73
2021/12/29 01:15:58;;;;;;;39.15;15.02;;;6.20;99.90;;;;;;5075728;28;20396;-72
2021/12/29 01:18:27;;;;;;;33.72;15.43;;;6.20;99.90;;;;;;5075359;28;20488;-72
2021/12/29 01:20:54;;;;;;;33.88;16.40;;;6.20;99.90;;;;;;5075645;28;20025;-73
2021/12/29 01:23:20;;;;;;;35.70;15.18;;;6.20;99.90;;;;;;5075484;28;20021;-72
2021/12/29 01:25:46;;;;;;;36.15;16.73;;;6.20;99.90;;;;;;5075284;28;20393;-73
2021/12/29 01:28:12;;;;;;;34.55;16.75;;;6.20;99.90;;;;;;5075024;28;20028;-72
2021/12/29 01:30:38;;;;;;;44.38;17.55;;;6.20;99.90;;;;;;5075023;28;20489;-72
2021/12/29 01:33:06;;;;;;;31.38;16.08;;;6.20;99.90;;;;;;5075720;28;20021;-72
2021/12/29 01:35:36;;;;;;;31.98;15.93;;;6.20;99.90;;;;;;5080970;28;20017;-72
2021/12/29 01:38:03;;;;;;;36.60;15.45;;;6.20;99.90;;;;;;5081935;28;20025;-73
2021/12/29 01:40:29;;;;;;;30.58;15.77;;;6.20;99.90;;;;;;5075197;28;20136;-71
2021/12/29 01:42:55;;;;;;;34.58;15.40;;;6.20;99.90;;;;;;5075040;28;20099;-72
2021/12/29 01:45:21;;;;;;;42.17;16.33;;;6.20;99.90;;;;;;5075353;28;20473;-73
2021/12/29 01:47:48;;;;;;;40.72;15.93;;;6.20;99.90;;;;;;5074892;28;20044;-72
2021/12/29 01:50:16;;;;;;;34.92;17.08;;;6.20;99.90;;;;;;5075167;28;20408;-72
2021/12/29 01:52:42;;;;;;;40.33;16.00;;;6.20;99.90;;;;;;5074953;28;20031;-72
2021/12/29 01:55:13;;;;;;;36.08;15.57;;;6.20;99.90;;;;;;5075366;28;20025;-73
2021/12/29 01:57:39;;;;;;;35.75;16.42;;;6.20;99.90;;;;;;5074729;28;20025;-72
2021/12/29 02:00:08;;;;;;;34.70;15.82;;;6.20;99.90;;;;;;5057473;28;20086;-71
2021/12/29 02:02:34;;;;;;;34.55;16.83;;;6.20;99.90;;;;;;5056924;28;20044;-73
2021/12/29 02:04:59;;;;;;;34.65;16.77;;;6.30;99.90;;;;;;5074608;28;20028;-72
2021/12/29 02:07:25;;;;;;;40.83;16.63;;;6.30;99.90;;;;;;5056417;28;20035;-73
2021/12/29 02:09:51;;;;;;;37.55;17.30;;;6.30;99.90;;;;;;5056802;28;20029;-73
2021/12/29 02:12:16;;;;;;;35.40;17.48;;;6.30;99.90;;;;;;5075071;28;20082;-73
2021/12/29 02:14:45;;;;;;;35.88;16.92;;;6.30;99.90;;;;;;5074918;28;20035;-73
2021/12/29 02:17:13;;;;;;;36.65;16.77;;;6.30;99.90;;;;;;5074972;28;20078;-70
2021/12/29 02:19:45;;;;;;;39.80;16.48;;;6.30;99.90;;;;;;5075434;28;20028;-71
2021/12/29 02:22:22;;;;;;;30.85;16.17;;;6.30;99.90;;;;;;5076637;28;20538;-70
2021/12/29 02:24:53;;;;;;;35.25;16.92;;;6.30;99.90;;;;;;5080612;28;20093;-70
2021/12/29 02:27:19;;;;;;;40.97;18.27;;;6.30;99.90;;;;;;5076570;28;20059;-71
2021/12/29 02:29:47;;;;;;;43.67;18.42;;;6.30;99.90;;;;;;5077751;28;20017;-70
2021/12/29 02:32:14;;;;;;;48.90;18.95;;;6.30;99.90;;;;;;5063283;28;20021;-71
2021/12/29 02:34:39;;;;;;;36.38;16.85;;;6.40;99.90;;;;;;5081269;28;20017;-71
2021/12/29 02:37:05;;;;;;;43.55;19.73;;;6.30;99.90;;;;;;5093776;28;20008;-72
2021/12/29 02:39:33;;;;;;;41.67;18.58;;;6.30;99.90;;;;;;5078073;28;20102;-72
2021/12/29 02:42:04;;;;;;;41.78;19.05;;;6.40;99.90;;;;;;5074375;28;20056;-71
2021/12/29 02:44:30;;;;;;;;;;;6.40;99.90;;;;;;5074668;28;20103;-71
2021/12/29 02:46:57;;;;;;;43.15;18.98;;;6.40;99.90;;;;;;5056256;28;19908;-70
2021/12/29 02:49:25;;;;;;;42.83;17.92;;;6.50;99.90;;;;;;5073629;28;20104;-71
2021/12/29 02:51:51;;;;;;;42.30;18.70;;;6.40;99.90;;;;;;5055842;28;20031;-71
2021/12/29 02:54:18;;;;;;;44.70;19.02;;;6.40;99.90;;;;;;5073638;28;20040;-71
2021/12/29 02:56:47;;;;;;;47.85;20.65;;;6.40;99.90;;;;;;5078054;28;20040;-71
2021/12/29 02:59:12;;;;;;;54.30;21.73;;;6.40;99.90;;;;;;5059948;28;20025;-72
2021/12/29 03:01:38;;;;;;;49.85;21.25;;;6.30;99.90;;;;;;5078335;28;20389;-71
2021/12/29 03:04:06;;;;;;;55.45;22.67;;;6.30;99.90;;;;;;5078816;28;20074;-71
2021/12/29 03:06:33;;;;;;;55.08;22.10;;;6.40;99.90;;;;;;5092950;28;20040;-71
2021/12/29 03:08:58;;;;;;;62.35;22.70;;;6.40;99.90;;;;;;5076935;28;20040;-72
2021/12/29 03:11:24;;;;;;;63.60;23.35;;;6.50;99.90;;;;;;5079329;28;20028;-72
2021/12/29 03:13:50;;;;;;;60.15;23.48;;;6.40;99.90;;;;;;5086902;28;20038;-71
2021/12/29 03:16:16;;;;;;;43.50;21.83;;;6.40;99.90;;;;;;5086484;28;20031;-72
2021/12/29 03:18:42;;;;;;;54.90;23.55;;;6.40;99.90;;;;;;5066872;28;20097;-73
2021/12/29 03:21:09;;;;;;;52.17;22.40;;;6.40;99.90;;;;;;5096931;28;20020;-72
2021/12/29 03:23:35;;;;;;;57.17;24.05;;;6.40;99.90;;;;;;5072191;28;20107;-72
2021/12/29 03:26:02;;;;;;;59.28;23.70;;;6.40;99.90;;;;;;5077265;28;20056;-72
2021/12/29 03:28:28;;;;;;;46.20;24.17;;;6.40;99.90;;;;;;5076267;28;20021;-72
2021/12/29 03:30:56;;;;;;;53.67;24.48;;;6.40;99.90;;;;;;5076574;28;20028;-72
2021/12/29 03:33:25;;;;;;;57.67;25.45;;;6.40;99.90;;;;;;5076154;28;20023;-72
2021/12/29 03:36:02;;;;;;;58.53;25.65;;;6.40;99.90;;;;;;5076550;28;20345;-72
2021/12/29 03:38:29;;;;;;;60.80;23.90;;;6.40;99.90;;;;;;5076495;28;20029;-72
2021/12/29 03:40:57;;;;;;;55.08;24.02;;;6.40;99.90;;;;;;5076318;28;20386;-72
2021/12/29 03:43:24;;;;;;;55.22;23.33;;;6.40;99.90;;;;;;5076291;28;20028;-72
2021/12/29 03:45:51;;;;;;;58.92;23.10;;;6.40;99.90;;;;;;5076261;28;20030;-72
2021/12/29 03:48:19;;;;;;;60.90;24.65;;;6.40;99.90;;;;;;5076263;28;20029;-72
2021/12/29 03:50:46;;;;;;;51.60;25.27;;;6.40;99.90;;;;;;5075898;28;20449;-72
2021/12/29 03:53:14;;;;;;;57.00;25.75;;;6.40;99.90;;;;;;5076092;28;20013;-72
2021/12/29 03:55:40;;;;;;;51.78;25.73;;;6.40;99.90;;;;;;5076095;28;20100;-71
2021/12/29 03:58:06;;;;;;;65.88;26.42;;;6.40;99.90;;;;;;5075525;28;20100;-72
2021/12/29 04:00:32;;;;;;;65.28;25.15;;;6.40;99.90;;;;;;5076477;28;20082;-72
2021/12/29 04:02:57;;;;;;;57.22;26.00;;;6.40;99.90;;;;;;5075870;28;20086;-71
2021/12/29 04:05:23;;;;;;;57.22;27.33;;;6.40;99.90;;;;;;5075579;28;20108;-71
2021/12/29 04:07:52;;;;;;;62.53;27.27;;;6.40;99.90;;;;;;5075595;28;20044;-72
2021/12/29 04:10:18;;;;;;;59.65;26.92;;;6.40;99.90;;;;;;5075481;28;20036;-72
2021/12/29 04:12:43;;;;;;;57.72;26.50;;;6.40;99.90;;;;;;5075432;28;20046;-71
2021/12/29 04:15:11;;;;;;;57.28;25.77;;;6.40;99.90;;;;;;5075254;28;20084;-71
2021/12/29 04:17:39;;;;;;;65.60;27.38;;;6.40;99.90;;;;;;5057371;28;20035;-71
2021/12/29 04:23:10;;;;;;;57.05;26.05;;;6.40;99.90;;;;;;5075329;28;20109;-70
2021/12/29 04:25:38;;;;;;;56.88;25.08;;;6.40;99.90;;;;;;5075217;28;20033;-71
2021/12/29 04:28:09;;;;;;;64.35;26.92;;;6.40;99.90;;;;;;5075355;28;20112;-72
2021/12/29 04:30:35;;;;;;;67.70;26.60;;;6.40;99.90;;;;;;5075509;28;20390;-70
2021/12/29 04:33:00;;;;;;;66.10;27.50;;;6.40;99.90;;;;;;5057609;28;20021;-71
2021/12/29 04:35:26;;;;;;;63.42;28.05;;;6.40;99.90;;;;;;5057348;28;20040;-72
2021/12/29 04:37:53;;;;;;;65.88;28.75;;;6.40;99.90;;;;;;5075750;28;20100;-72
2021/12/29 04:40:20;;;;;;;74.85;28.02;;;6.40;99.90;;;;;;5057880;28;20032;-72
2021/12/29 04:42:46;;;;;;;74.95;29.77;;;6.40;99.90;;;;;;5077346;28;20052;-72
2021/12/29 04:45:12;;;;;;;77.28;29.05;;;6.40;99.90;;;;;;5079860;28;20394;-72
2021/12/29 04:47:42;;;;;;;66.47;28.30;;;6.30;99.90;;;;;;5094206;28;20024;-71
2021/12/29 04:50:24;;;;;;;67.40;27.63;;;6.40;99.90;;;;;;5094152;28;20036;-71
2021/12/29 04:52:50;;;;;;;78.95;28.20;;;6.40;99.90;;;;;;5078565;28;20259;-71
2021/12/29 04:55:16;;;;;;;78.18;30.13;;;6.40;99.90;;;;;;5083125;28;20024;-71
2021/12/29 04:57:41;;;;;;;82.63;31.05;;;6.40;99.90;;;;;;5056666;28;20020;-70
2021/12/29 05:00:08;;;;;;;80.90;29.80;;;6.30;99.90;;;;;;5075211;28;20044;-71
2021/12/29 05:02:34;;;;;;;74.50;29.52;;;6.40;99.90;;;;;;5075697;28;20513;-71
2021/12/29 05:05:07;;;;;;;77.97;30.75;;;6.40;99.90;;;;;;5057215;28;20056;-71
2021/12/29 05:10:17;;;;;;;80.75;31.33;;;6.40;99.90;;;;;;5083025;28;20054;-71
2021/12/29 05:12:43;;;;;;;86.40;30.85;;;6.40;99.90;;;;;;5079253;28;20381;-71
2021/12/29 05:15:09;;;;;;;71.80;29.60;;;6.40;99.90;;;;;;5058572;28;20031;-71
2021/12/29 05:17:34;;;;;;;73.15;29.30;;;6.40;99.90;;;;;;5082758;28;20023;-72
2021/12/29 05:20:00;;;;;;;75.38;31.48;;;6.40;99.90;;;;;;5080383;28;20166;-72
2021/12/29 05:22:25;;;;;;;73.50;29.27;;;6.40;99.90;;;;;;5056161;28;20035;-72
2021/12/29 05:24:51;;;;;;;93.53;31.00;;;6.40;99.90;;;;;;5074155;28;20024;-72
2021/12/29 05:27:17;;;;;;;74.47;31.25;;;6.40;99.90;;;;;;5073959;28;20032;-72
2021/12/29 05:29:42;;;;;;;75.93;30.55;;;6.40;99.90;;;;;;5073726;28;20108;-72
2021/12/29 05:32:08;;;;;;;84.40;30.65;;;6.50;99.90;;;;;;5074090;28;20074;-70
2021/12/29 05:34:34;;;;;;;85.20;31.92;;;6.50;99.90;;;;;;5074580;28;20465;-72
2021/12/29 05:37:00;;;;;;;82.53;29.60;;;6.50;99.90;;;;;;5074285;28;20025;-71
2021/12/29 05:39:25;;;;;;;80.68;31.25;;;6.50;99.90;;;;;;5073980;28;20021;-72
2021/12/29 05:41:51;;;;;;;68.20;28.15;;;6.50;99.90;;;;;;5058421;28;20025;-71
2021/12/29 05:44:17;;;;;;;82.32;29.25;;;6.50;99.90;;;;;;5078638;28;20456;-72
2021/12/29 05:46:43;;;;;;;70.82;30.20;;;6.50;99.90;;;;;;5075884;28;20389;-72
2021/12/29 05:49:09;;;;;;;79.50;29.90;;;6.50;99.90;;;;;;5074182;28;20024;-71
2021/12/29 05:51:35;;;;;;;76.13;29.50;;;6.50;99.90;;;;;;5074798;28;20020;-72
2021/12/29 05:54:00;;;;;;;75.57;28.70;;;6.50;99.90;;;;;;5075261;28;20394;-71
2021/12/29 05:56:26;;;;;;;77.35;29.35;;;6.50;99.90;;;;;;5083470;28;20037;-72
2021/12/29 05:58:52;;;;;;;73.85;28.65;;;6.50;99.90;;;;;;5091043;28;20058;-72
2021/12/29 06:01:17;;;;;;;68.25;27.45;;;6.50;99.90;;;;;;5078269;28;20093;-72
2021/12/29 06:03:43;;;;;;;74.95;27.77;;;6.50;99.90;;;;;;5075739;28;20434;-71
2021/12/29 06:06:09;;;;;;;74.10;27.88;;;6.50;99.90;;;;;;5056450;28;20024;-72
2021/12/29 06:08:35;;;;;;;67.70;26.13;;;6.50;99.90;;;;;;5073968;28;20032;-68
2021/12/29 06:11:00;;;;;;;62.65;26.45;;;6.50;99.90;;;;;;5074723;28;20086;-73
2021/12/29 06:13:27;;;;;;;70.15;28.35;;;6.60;99.90;;;;;;5074603;28;20056;-72
2021/12/29 06:15:52;;;;;;;69.38;27.00;;;6.60;99.90;;;;;;5055674;28;20427;-72
2021/12/29 06:18:18;;;;;;;74.22;27.25;;;6.50;99.90;;;;;;5073340;28;20032;-72
2021/12/29 06:20:44;;;;;;;63.35;24.98;;;6.50;99.90;;;;;;5074121;28;20032;-72
2021/12/29 06:23:12;;;;;;;62.45;25.95;;;6.60;99.90;;;;;;5073211;28;20141;-73
2021/12/29 06:25:39;;;;;;;71.40;26.02;;;6.60;99.90;;;;;;5073241;28;20335;-72
2021/12/29 06:28:05;;;;;;;63.53;26.48;;;6.60;99.90;;;;;;5073499;28;20099;-73
2021/12/29 06:30:31;;;;;;;66.38;27.55;;;6.70;99.90;;;;;;5071996;28;20032;-72
2021/12/29 06:32:57;;;;;;;54.40;23.92;;;6.60;99.90;;;;;;5073674;28;20074;-72
2021/12/29 06:35:22;;;;;;;59.25;24.52;;;6.60;99.90;;;;;;5078178;28;20091;-73
2021/12/29 06:37:48;;;;;;;58.85;24.40;;;6.60;99.90;;;;;;5075549;28;20198;-73
2021/12/29 06:40:15;;;;;;;58.58;24.15;;;6.60;99.90;;;;;;5073071;28;20028;-73
2021/12/29 06:42:41;;;;;;;59.15;23.90;;;6.60;99.90;;;;;;5072619;28;20549;-72
2021/12/29 06:45:07;;;;;;;59.22;24.42;;;6.60;99.90;;;;;;5073637;28;20037;-72
2021/12/29 06:47:33;;;;;;;61.53;23.83;;;6.60;99.90;;;;;;5073152;28;20550;-72
2021/12/29 06:49:58;;;;;;;50.13;23.00;;;6.60;99.90;;;;;;5073118;28;20037;-72
2021/12/29 06:52:24;;;;;;;47.83;22.77;;;6.60;99.90;;;;;;5073607;28;20515;-71
2021/12/29 06:54:50;;;;;;;49.45;22.05;;;6.60;99.90;;;;;;5073824;28;20025;-71
2021/12/29 06:57:16;;;;;;;48.58;22.52;;;6.60;99.90;;;;;;5074173;28;20032;-72
2021/12/29 06:59:42;;;;;;;50.67;22.40;;;6.60;99.90;;;;;;5058908;28;20025;-72
2021/12/29 07:02:09;;;;;;;56.05;23.27;;;6.50;99.90;;;;;;5073134;28;20134;-72
2021/12/29 07:04:35;;;;;;;46.97;21.40;;;6.50;99.90;;;;;;5093782;28;20039;-72
2021/12/29 07:07:00;;;;;;;50.92;21.95;;;6.50;99.90;;;;;;5074405;28;20037;-73
2021/12/29 07:09:26;;;;;;;49.03;21.85;;;6.50;99.90;;;;;;5060325;22;20045;-49
2021/12/29 07:11:52;;;;;;;48.60;22.30;;;6.50;99.90;;;;;;5053496;28;20025;-51
2021/12/29 07:14:20;;;;;;;46.25;20.75;;;6.50;99.90;;;;;;5052693;28;20039;-48
2021/12/29 07:16:47;;;;;;;50.17;20.92;;;6.50;99.90;;;;;;5053004;28;20060;-49
2021/12/29 07:19:13;;;;;;;54.45;23.30;;;6.50;99.90;;;;;;5052590;28;20108;-49
2021/12/29 07:21:39;;;;;;;50.22;21.25;;;6.50;99.90;;;;;;5052728;28;20069;-52
2021/12/29 07:24:06;;;;;;;53.95;21.73;;;6.50;99.90;;;;;;5053211;28;20021;-49
2021/12/29 07:26:31;;;;;;;56.80;20.75;;;6.50;99.90;;;;;;5053653;28;20021;-46
2021/12/29 07:28:57;;;;;;;51.70;20.40;;;6.50;99.90;;;;;;5053077;28;20531;-49
2021/12/29 07:31:22;;;;;;;44.28;18.77;;;6.50;99.90;;;;;;5052573;28;20036;-48
2021/12/29 07:33:48;;;;;;;47.35;20.75;;;6.50;99.90;;;;;;5053017;28;20378;-49
2021/12/29 07:36:14;;;;;;;49.72;20.13;;;6.40;99.90;;;;;;5053072;28;20362;-50
2021/12/29 07:38:40;;;;;;;51.78;20.42;;;6.50;99.90;;;;;;5053082;28;20036;-51
2021/12/29 07:41:08;;;;;;;53.00;20.33;;;6.50;99.90;;;;;;5054402;28;20150;-50
2021/12/29 07:43:35;;;;;;;50.65;20.88;;;6.50;99.90;;;;;;5056496;28;20040;-50
2021/12/29 07:46:01;;;;;;;48.70;19.83;;;6.40;99.90;;;;;;5056689;28;20020;-51
2021/12/29 07:48:29;;;;;;;59.28;21.00;;;6.40;99.90;;;;;;5056689;28;20482;-51
2021/12/29 07:50:55;;;;;;;52.22;19.60;;;6.50;99.90;;;;;;5057034;28;20020;-46
2021/12/29 07:53:21;;;;;;;49.47;19.48;;;6.50;99.90;;;;;;5056219;28;20020;-48
2021/12/29 07:55:47;;;;;;;49.60;18.75;;;6.50;99.90;;;;;;5056686;28;20100;-48
2021/12/29 07:58:13;;;;;;;56.65;21.05;;;6.50;99.90;;;;;;5056146;28;20063;-48
2021/12/29 08:00:39;;;;;;;59.97;19.58;;;6.50;99.90;;;;;;5056245;28;20048;-51
2021/12/29 08:03:05;;;;;;;62.05;21.40;;;6.60;99.90;;;;;;5056538;28;20075;-52
2021/12/29 08:05:30;;;;;;;58.47;22.33;;;6.60;99.90;;;;;;5038366;28;20028;-50
2021/12/29 08:07:56;;;;;;;58.38;20.55;;;6.50;99.90;;;;;;5056497;28;20025;-49
2021/12/29 08:10:22;;;;;;;59.53;21.17;;;6.50;99.90;;;;;;5056057;28;20162;-49
2021/12/29 08:12:48;;;;;;;55.65;19.48;;;6.50;99.90;;;;;;5055654;28;20504;-48
2021/12/29 08:15:13;;;;;;;58.03;20.38;;;6.60;99.90;;;;;;5055949;28;20497;-51
2021/12/29 08:17:41;;;;;;;65.50;20.92;;;6.60;99.90;;;;;;5055843;28;20013;-49
2021/12/29 08:20:07;;;;;;;61.08;19.90;;;6.60;99.90;;;;;;5055698;28;20103;-46
2021/12/29 08:22:33;;;;;;;66.97;21.17;;;6.60;99.90;;;;;;5056186;28;20028;-52
2021/12/29 08:24:59;;;;;;;66.35;20.25;;;6.60;99.90;;;;;;5055564;28;20371;-52
2021/12/29 08:27:24;;;;;;;64.65;19.73;;;6.60;99.90;;;;;;5055500;28;20032;-50
2021/12/29 08:29:50;;;;;;;67.10;20.55;;;6.60;99.90;;;;;;5055557;28;20108;-48
2021/12/29 08:32:16;;;;;;;74.45;21.50;;;6.60;99.90;;;;;;5055443;28;20504;-47
2021/12/29 08:34:41;;;;;;;59.58;20.83;;;6.60;99.90;;;;;;5055369;28;20424;-49
2021/12/29 08:37:07;;;;;;;68.82;21.00;;;6.70;99.90;;;;;;5055192;28;20077;-51
2021/12/29 08:39:33;;;;;;;73.03;21.65;;;6.70;99.90;;;;;;5055378;28;20448;-51
2021/12/29 08:41:58;;;;;;;59.45;19.05;;;6.70;99.90;;;;;;5055442;28;20458;-50
2021/12/29 08:44:24;;;;;;;73.15;20.02;;;6.70;99.90;;;;;;5055704;28;20527;-49
2021/12/29 08:46:50;;;;;;;76.28;20.35;;;6.70;99.90;;;;;;5056145;28;20076;-46
2021/12/29 08:49:15;;;;;;;69.82;20.15;;;6.70;99.90;;;;;;5056775;28;20025;-47
2021/12/29 08:51:41;;;;;;;62.17;19.65;;;6.80;99.90;;;;;;5055463;28;20060;-48
2021/12/29 08:54:07;;;;;;;76.97;19.92;;;6.80;99.90;;;;;;5055840;28;20053;-48
2021/12/29 08:56:33;;;;;;;74.38;19.48;;;6.80;99.90;;;;;;5055952;28;20021;-48
2021/12/29 08:58:58;;;;;;;63.42;20.55;;;6.80;99.90;;;;;;5056186;28;20021;-49
2021/12/29 09:01:25;;;;;;;86.40;21.45;;;6.80;99.90;;;;;;5056265;28;20085;-48
2021/12/29 09:03:51;;;;;;;71.97;22.45;;;6.80;99.90;;;;;;5055486;28;20079;-50
2021/12/29 09:06:18;;;;;;;67.22;22.27;;;6.80;99.90;;;;;;5055624;28;20025;-48
2021/12/29 09:08:44;;;;;;;70.10;22.27;;;6.90;99.90;;;;;;5055384;28;20060;-50
2021/12/29 09:11:11;;;;;;;63.03;19.13;;;6.90;99.90;;;;;;5055912;28;20033;-47
2021/12/29 09:13:37;;;;;;;71.13;20.70;;;6.90;99.90;;;;;;5038488;28;20017;-49
2021/12/29 09:16:04;;;;;;;64.75;20.35;;;6.90;99.90;;;;;;5038128;28;20032;-47
2021/12/29 09:18:32;;;;;;;67.50;20.88;;;6.90;99.90;;;;;;5055943;28;20044;-46
2021/12/29 09:21:06;;;;;;;66.00;19.02;;;7.00;99.90;;;;;;5037815;28;20127;-48
2021/12/29 09:23:33;;;;;;;58.92;19.85;;;6.90;99.90;;;;;;5055745;28;20082;-48
2021/12/29 09:25:59;;;;;;;51.55;17.23;;;6.90;99.90;;;;;;5055916;28;20021;-49
2021/12/29 09:28:25;;;;;;;40.35;14.13;;;7.00;99.90;;;;;;5055324;28;20039;-47
2021/12/29 09:30:51;;;;;;;49.45;15.32;;;7.00;99.90;;;;;;5054539;28;20473;-48
2021/12/29 09:33:19;;;;;;;41.17;13.13;;;7.00;99.90;;;;;;5054857;28;20028;-49
2021/12/29 09:35:47;;;;;;;39.55;12.82;;;6.90;99.90;;;;;;5054680;28;20371;-48
2021/12/29 09:38:15;;;;;;;33.67;12.85;;;6.90;99.90;;;;;;5054249;28;20072;-49
2021/12/29 09:40:41;;;;;;;40.25;13.20;;;7.00;99.90;;;;;;5054707;28;20090;-47
2021/12/29 09:43:08;;;;;;;45.38;12.55;;;7.00;99.90;;;;;;5054373;28;20056;-49
2021/12/29 09:45:35;;;;;;;43.20;12.73;;;7.10;99.90;;;;;;5054495;28;20083;-48
2021/12/29 09:48:01;;;;;;;49.20;14.60;;;7.10;99.90;;;;;;5054521;28;20118;-49
2021/12/29 09:50:27;;;;;;;47.53;12.88;;;7.10;99.90;;;;;;5054729;28;20459;-49
2021/12/29 09:52:55;;;;;;;45.70;14.23;;;7.10;99.90;;;;;;5053960;28;20151;-49
2021/12/29 09:55:22;;;;;;;45.63;14.52;;;7.10;99.90;;;;;;5036663;28;20028;-48
2021/12/29 09:57:50;;;;;;;46.58;14.13;;;7.20;99.90;;;;;;5035814;28;20124;-48
2021/12/29 10:00:23;;;;;;;49.08;14.70;;;7.30;99.90;;;;;;5054147;28;20485;-50
2021/12/29 10:02:49;;;;;;;48.70;14.68;;;7.30;99.90;;;;;;5054225;28;20032;-48
2021/12/29 10:05:15;;;;;;;68.03;16.38;;;7.30;99.90;;;;;;5054011;28;20056;-48
2021/12/29 10:07:41;;;;;;;48.40;15.48;;;7.30;99.90;;;;;;5054196;28;20060;-49
2021/12/29 10:10:18;;;;;;;52.28;14.63;;;7.30;99.90;;;;;;5053961;28;20101;-51
2021/12/29 10:12:46;;;;;;;51.25;15.10;;;7.20;99.90;;;;;;5053662;28;20053;-50
2021/12/29 10:15:13;;;;;;;51.42;14.70;;;7.20;99.90;;;;;;5053961;28;20087;-49
2021/12/29 10:17:39;;;;;;;48.97;15.48;;;7.30;99.90;;;;;;5054063;28;20021;-48
2021/12/29 10:20:09;;;;;;;44.40;14.10;;;7.40;99.90;;;;;;5035809;28;20050;-51
2021/12/29 10:22:36;;;;;;;45.00;14.52;;;7.40;99.90;;;;;;5053690;28;20033;-46
2021/12/29 10:25:24;;;;;;;39.88;13.90;;;7.40;99.90;;;;;;5053802;28;20535;-47
2021/12/29 10:27:51;;;;;;;49.75;14.68;;;7.40;99.90;;;;;;5053870;28;20056;-49
2021/12/29 10:30:26;;;;;;;46.97;15.68;;;7.50;99.90;;;;;;5053552;28;20049;-48
2021/12/29 10:32:55;;;;;;;47.05;15.48;;;7.40;99.90;;;;;;5053213;28;20117;-48
2021/12/29 10:35:27;;;;;;;43.13;15.00;;;7.40;99.90;;;;;;5053715;28;20025;-49
2021/12/29 10:37:55;;;;;;;45.08;14.70;;;7.40;99.90;;;;;;5053473;28;20424;-48
2021/12/29 10:40:28;;;;;;;41.88;14.02;;;7.50;99.90;;;;;;5053172;28;20032;-50
2021/12/29 10:42:59;;;;;;;47.70;15.90;;;7.40;99.90;;;;;;5053131;28;20029;-49
2021/12/29 10:45:33;;;;;;;43.47;14.57;;;7.40;99.90;;;;;;5053541;28;20029;-49
2021/12/29 10:48:00;;;;;;;44.88;15.13;;;7.50;99.90;;;;;;5053159;28;20033;-48
2021/12/29 10:50:27;;;;;;;51.60;16.85;;;7.50;99.90;;;;;;5053462;28;20467;-51
2021/12/29 10:52:55;;;;;;;51.22;16.42;;;7.50;99.90;;;;;;5053604;28;20017;-49
2021/12/29 10:55:25;;;;;;;51.00;17.67;;;7.60;99.90;;;;;;5035780;28;20032;-50
2021/12/29 10:58:23;;;;;;;47.42;16.23;;;7.60;99.90;;;;;;5053340;28;20021;-48
2021/12/29 11:01:05;;;;;;;46.47;16.73;;;7.60;99.90;;;;;;5041609;28;20124;-52
2021/12/29 11:03:32;;;;;;;51.22;17.88;;;7.70;99.90;;;;;;5053075;28;20493;-49
2021/12/29 11:06:01;;;;;;;47.85;16.65;;;7.70;99.90;;;;;;5035842;28;20402;-51
2021/12/29 11:08:29;;;;;;;51.30;17.65;;;7.80;99.90;;;;;;5053434;28;20051;-48
2021/12/29 11:11:05;;;;;;;49.25;17.38;;;7.70;99.90;;;;;;5054194;28;20079;-48
2021/12/29 11:13:31;;;;;;;51.45;17.60;;;7.80;99.90;;;;;;5053853;28;20424;-49
2021/12/29 11:16:00;;;;;;;56.80;18.25;;;7.90;99.90;;;;;;5055180;28;20021;-50
2021/12/29 11:18:38;;;;;;;53.10;18.25;;;7.90;99.90;;;;;;5057025;28;20033;-49
2021/12/29 11:21:04;;;;;;;54.85;18.33;;;7.90;99.90;;;;;;5057561;28;20021;-49
2021/12/29 11:23:30;;;;;;;54.20;19.60;;;7.90;99.90;;;;;;5056472;28;20044;-47
2021/12/29 11:26:00;;;;;;;50.28;18.38;;;7.90;99.90;;;;;;5057586;28;20035;-49
2021/12/29 11:28:31;;;;;;;49.70;19.77;;;8.00;99.90;;;;;;5039448;28;20346;-50
2021/12/29 11:30:59;;;;;;;49.90;18.15;;;8.00;99.90;;;;;;5056856;28;20033;-47
2021/12/29 11:33:29;;;;;;;51.83;19.23;;;8.00;99.90;;;;;;5056867;28;20017;-51
2021/12/29 11:35:54;;;;;;;50.90;16.98;;;8.00;99.90;;;;;;5056669;28;20347;-49
2021/12/29 11:38:22;;;;;;;51.08;19.02;;;7.90;99.90;;;;;;5057195;28;20024;-48
2021/12/29 11:40:55;;;;;;;56.78;19.00;;;7.90;99.90;;;;;;5056329;28;20073;-49
2021/12/29 11:43:20;;;;;;;54.95;18.20;;;8.00;99.90;;;;;;5056936;28;20094;-48
2021/12/29 11:45:49;;;;;;;56.35;20.38;;;7.90;99.90;;;;;;5056845;28;20029;-50
2021/12/29 11:48:17;;;;;;;51.35;18.55;;;7.90;99.90;;;;;;5038920;28;20024;-51
2021/12/29 11:50:51;;;;;;;55.30;19.45;;;7.90;99.90;;;;;;5056997;28;20101;-47
2021/12/29 11:53:26;;;;;;;63.30;21.98;;;7.90;99.90;;;;;;5056859;28;20052;-47
2021/12/29 11:55:57;;;;;;;60.15;20.75;;;7.90;99.90;;;;;;5057212;28;20092;-48
2021/12/29 11:58:41;;;;;;;56.28;20.73;;;7.90;99.90;;;;;;5056963;28;20108;-48
2021/12/29 12:01:10;;;;;;;58.05;20.77;;;8.00;99.90;;;;;;5056626;28;20017;-49
2021/12/29 12:04:00;;;;;;;58.35;21.73;;;8.00;99.90;;;;;;5057044;28;20122;-50
2021/12/29 12:06:40;;;;;;;57.72;21.75;;;7.90;99.90;;;;;;5056814;28;20029;-47
2021/12/29 12:09:15;;;;;;;51.50;20.17;;;8.00;99.90;;;;;;5056474;28;20039;-48
2021/12/29 12:11:51;;;;;;;55.92;20.23;;;7.90;99.90;;;;;;5056542;28;20056;-51
2021/12/29 12:14:44;;;;;;;50.58;19.70;;;7.90;99.90;;;;;;5055858;28;20027;-48
2021/12/29 12:17:15;;;;;;;53.05;20.40;;;7.90;99.90;;;;;;5056389;28;20028;-48
2021/12/29 12:19:42;;;;;;;51.35;20.38;;;7.90;99.90;;;;;;5053434;28;20033;-49
2021/12/29 12:22:12;;;;;;;47.40;20.20;;;8.00;99.90;;;;;;5054479;28;20112;-49
2021/12/29 12:24:41;;;;;;;56.65;22.98;;;8.00;99.90;;;;;;5055899;28;20507;-50
2021/12/29 12:27:16;;;;;;;63.95;23.52;;;8.00;99.90;;;;;;5056237;28;20036;-51
2021/12/29 12:29:44;;;;;;;53.75;23.80;;;8.10;99.90;;;;;;5031294;28;20028;-49
2021/12/29 12:32:17;;;;;;;59.38;20.60;;;8.10;99.90;;;;;;5055309;28;20116;-49
2021/12/29 12:34:49;;;;;;;55.47;19.90;;;8.10;99.90;;;;;;5037172;28;20046;-50
2021/12/29 12:37:18;;;;;;;56.92;18.45;;;8.10;99.90;;;;;;5055144;28;20499;-51
2021/12/29 12:39:55;;;;;;;52.53;18.38;;;8.10;99.90;;;;;;5054607;28;20021;-50
2021/12/29 12:42:21;;;;;;;52.50;17.30;;;8.10;99.90;;;;;;5055528;28;20036;-49
2021/12/29 12:44:46;;;;;;;50.15;17.42;;;8.20;99.90;;;;;;5055464;28;20033;-48